createdAt,value
2023-04-22T00:01:18.432Z,99604.06
2023-04-22T00:05:34.800Z,99601.25
2023-04-22T00:09:51.026Z,99604.78
2023-04-22T00:14:07.298Z,99599.75
2023-04-22T00:18:23.703Z,99599.22
2023-04-22T00:22:39.995Z,99590.47
2023-04-22T00:26:56.368Z,99596.41
2023-04-22T00:31:12.731Z,99597.63
2023-04-22T00:35:29.070Z,99600.31
2023-04-22T00:39:45.875Z,99595.66
2023-04-22T00:44:02.221Z,99600.50
2023-04-22T00:48:18.846Z,99603.94
2023-04-22T00:52:35.170Z,99591.59
2023-04-22T00:56:51.519Z,99592.81
2023-04-22T01:01:07.886Z,99595.84
2023-04-22T01:05:25.906Z,99602.56
2023-04-22T01:09:42.498Z,99595.53
2023-04-22T01:13:59.049Z,99601.16
2023-04-22T01:18:15.828Z,99608.66
2023-04-22T01:22:37.193Z,99604.34
2023-04-22T01:26:53.726Z,99601.25
2023-04-22T01:31:10.288Z,99607.97
2023-04-22T01:35:26.685Z,99608.94
2023-04-22T01:39:43.339Z,99613.66
2023-04-22T01:44:00.642Z,99604.47
2023-04-22T01:48:17.006Z,99608.72
2023-04-22T01:52:33.312Z,99604.19
2023-04-22T01:56:56.121Z,99608.72
2023-04-22T02:01:13.279Z,99606.50
2023-04-22T02:05:29.671Z,99600.38
2023-04-22T02:09:47.396Z,99600.22
2023-04-22T02:14:05.022Z,99596.06
2023-04-22T02:18:21.269Z,99601.59
2023-04-22T02:22:37.857Z,99599.47
2023-04-22T02:26:54.136Z,99599.81
2023-04-22T02:31:10.549Z,99601.25
2023-04-22T02:35:26.895Z,99596.50
2023-04-22T02:39:43.151Z,99592.34
2023-04-22T02:43:59.530Z,99600.62
2023-04-22T02:48:15.941Z,99591.59
2023-04-22T02:52:33.659Z,99591.16
2023-04-22T02:56:50.047Z,99590.28
2023-04-22T03:01:06.358Z,99598.22
2023-04-22T03:05:22.859Z,99592.53
2023-04-22T03:09:39.589Z,99599.00
2023-04-22T03:13:56.128Z,99590.03
2023-04-22T03:18:12.467Z,99594.75
2023-04-22T03:22:28.771Z,99599.34
2023-04-22T03:26:45.287Z,99594.47
2023-04-22T03:31:01.596Z,99601.12
2023-04-22T03:35:17.865Z,99598.66
2023-04-22T03:39:34.121Z,99606.69
2023-04-22T03:43:50.455Z,99606.75
2023-04-22T03:48:06.866Z,99615.31
2023-04-22T03:52:23.197Z,99607.38
2023-04-22T03:56:39.528Z,99609.66
2023-04-22T04:00:55.885Z,99611.03
2023-04-22T04:05:12.448Z,99610.81
2023-04-22T04:09:28.906Z,99619.37
2023-04-22T04:13:45.213Z,99621.63
2023-04-22T04:18:01.820Z,99617.81
2023-04-22T04:22:18.688Z,99626.41
2023-04-22T04:26:34.949Z,99621.56
2023-04-22T04:30:53.831Z,99632.56
2023-04-22T04:35:13.213Z,99635.94
2023-04-22T04:39:29.793Z,99640.88
2023-04-22T04:43:46.648Z,99639.91
2023-04-22T04:48:03.363Z,99645.50
2023-04-22T04:52:19.727Z,99644.19
2023-04-22T04:56:36.084Z,99647.91
2023-04-22T05:00:52.394Z,99662.22
2023-04-22T05:05:09.415Z,99654.56
2023-04-22T05:09:25.751Z,99669.69
2023-04-22T05:13:42.131Z,99657.25
2023-04-22T05:17:58.452Z,99665.44
2023-04-22T05:22:14.822Z,99660.22
2023-04-22T05:26:31.077Z,99661.88
2023-04-22T05:30:47.345Z,99666.63
2023-04-22T05:35:04.293Z,99667.25
2023-04-22T05:39:21.121Z,99664.50
2023-04-22T05:43:37.566Z,99661.28
2023-04-22T05:47:53.974Z,99664.88
2023-04-22T05:52:10.249Z,99661.19
2023-04-22T05:56:26.779Z,99660.97
2023-04-22T06:00:43.082Z,99664.50
2023-04-22T06:04:59.855Z,99660.91
2023-04-22T06:09:16.408Z,99664.38
2023-04-22T06:13:32.739Z,99662.56
2023-04-22T06:17:49.929Z,99661.56
2023-04-22T06:22:06.328Z,99656.97
2023-04-22T06:26:22.653Z,99667.69
2023-04-22T06:30:39.022Z,99658.72
2023-04-22T06:34:55.328Z,99663.28
2023-04-22T06:39:11.808Z,99673.13
2023-04-22T06:43:28.101Z,99664.19
2023-04-22T06:47:44.484Z,99658.03
2023-04-22T06:52:00.852Z,99664.22
2023-04-22T06:56:17.252Z,99658.69
2023-04-22T07:00:33.657Z,99652.59
2023-04-22T07:04:50.002Z,99660.28
2023-04-22T07:09:06.422Z,99647.16
2023-04-22T07:13:22.687Z,99653.56
2023-04-22T07:17:39.121Z,99652.50
2023-04-22T07:21:55.603Z,99652.94
2023-04-22T07:26:12.072Z,99649.53
2023-04-22T07:30:28.346Z,99660.56
2023-04-22T07:34:44.605Z,99644.63
2023-04-22T07:39:01.032Z,99647.66
2023-04-22T07:43:18.373Z,99651.00
2023-04-22T07:47:34.725Z,99652.22
2023-04-22T07:51:52.462Z,99647.97
2023-04-22T07:56:09.106Z,99640.94
2023-04-22T08:00:25.369Z,99639.72
2023-04-22T08:04:41.976Z,99640.22
2023-04-22T08:08:58.278Z,99641.84
2023-04-22T08:13:15.336Z,99637.56
2023-04-22T08:17:32.781Z,99646.16
2023-04-22T08:21:49.116Z,99637.13
2023-04-22T08:26:05.711Z,99634.34
2023-04-22T08:30:22.159Z,99633.88
2023-04-22T08:34:39.027Z,99633.81
2023-04-22T08:38:55.643Z,99630.59
2023-04-22T08:43:12.525Z,99626.81
2023-04-22T08:47:29.291Z,99631.38
2023-04-22T08:51:46.280Z,99624.38
2023-04-22T08:56:02.934Z,99633.84
2023-04-22T09:00:19.646Z,99627.63
2023-04-22T09:04:36.830Z,99628.47
2023-04-22T09:08:53.390Z,99620.41
2023-04-22T09:13:10.552Z,99621.13
2023-04-22T09:17:34.647Z,99627.47
2023-04-22T09:21:53.697Z,99626.28
2023-04-22T09:26:11.181Z,99628.97
2023-04-22T09:30:32.279Z,99619.31
2023-04-22T09:34:58.626Z,99624.44
2023-04-22T09:39:15.147Z,99622.41
2023-04-22T09:43:32.858Z,99613.25
2023-04-22T09:47:49.165Z,99610.09
2023-04-22T09:52:06.202Z,99612.31
2023-04-22T09:56:24.187Z,99603.13
2023-04-22T10:00:45.080Z,99599.88
2023-04-22T10:05:01.813Z,99593.66
2023-04-22T10:09:20.887Z,99584.84
2023-04-22T10:13:37.170Z,99584.72
2023-04-22T10:17:55.389Z,99579.97
2023-04-22T10:22:12.222Z,99589.22
2023-04-22T10:26:50.724Z,99578.22
2023-04-22T10:31:22.498Z,99578.25
2023-04-22T10:35:38.862Z,99572.78
2023-04-22T10:40:14.213Z,99576.41
2023-04-22T10:44:45.792Z,99562.28
2023-04-22T10:49:18.382Z,99564.19
2023-04-22T10:53:38.118Z,99558.56
2023-04-22T10:57:54.750Z,99546.88
2023-04-22T11:02:12.242Z,99549.78
2023-04-22T11:06:30.576Z,99552.13
2023-04-22T11:10:49.030Z,99551.06
2023-04-22T11:15:20.282Z,99557.59
2023-04-22T11:19:37.007Z,99548.81
2023-04-22T11:23:53.716Z,99546.03
2023-04-22T11:28:10.633Z,99543.09
2023-04-22T11:32:27.497Z,99552.50
2023-04-22T11:36:47.309Z,99550.00
2023-04-22T11:41:05.273Z,99555.66
2023-04-22T11:45:22.088Z,99556.69
2023-04-22T11:49:39.536Z,99558.13
2023-04-22T11:53:58.382Z,99556.22
2023-04-22T11:58:20.400Z,99558.47
2023-04-22T12:02:36.749Z,99555.53
2023-04-22T12:06:53.042Z,99547.06
2023-04-22T12:11:10.890Z,99553.28
2023-04-22T12:15:27.243Z,99545.22
2023-04-22T12:19:48.283Z,99545.56
2023-04-22T12:24:10.801Z,99544.53
2023-04-22T12:28:27.071Z,99541.69
2023-04-22T12:32:43.383Z,99538.06
2023-04-22T12:37:00.008Z,99528.00
2023-04-22T12:41:16.785Z,99526.94
2023-04-22T12:45:33.132Z,99519.09
2023-04-22T12:49:49.601Z,99517.19
2023-04-22T12:54:05.910Z,99515.75
2023-04-22T12:58:22.212Z,99520.75
2023-04-22T13:02:38.681Z,99518.13
2023-04-22T13:06:56.678Z,99512.41
2023-04-22T13:11:12.910Z,99506.44
2023-04-22T13:15:30.390Z,99505.97
2023-04-22T13:19:47.775Z,99498.41
2023-04-22T13:24:04.232Z,99496.91
2023-04-22T13:28:20.630Z,99500.50
2023-04-22T13:32:36.929Z,99509.28
2023-04-22T13:36:53.341Z,99495.84
2023-04-22T13:41:09.737Z,99501.66
2023-04-22T13:45:26.409Z,99494.22
2023-04-22T13:49:42.834Z,99495.84
2023-04-22T13:53:59.769Z,99484.53
2023-04-22T13:58:16.039Z,99488.34
2023-04-22T14:02:32.435Z,99489.97
2023-04-22T14:06:48.801Z,99487.16
2023-04-22T14:11:06.722Z,99483.09
2023-04-22T14:15:22.999Z,99477.91
2023-04-22T14:19:40.203Z,99484.44
2023-04-22T14:23:56.690Z,99483.41
2023-04-22T14:28:14.020Z,99488.00
2023-04-22T14:32:30.518Z,99486.53
2023-04-22T14:36:46.747Z,99490.47
2023-04-22T14:41:04.014Z,99483.22
2023-04-22T14:45:20.336Z,99482.50
2023-04-22T14:49:37.021Z,99476.63
2023-04-22T14:53:53.347Z,99469.88
2023-04-22T14:58:09.796Z,99473.22
2023-04-22T15:02:26.175Z,99470.94
2023-04-22T15:06:42.818Z,99460.81
2023-04-22T15:11:00.090Z,99461.91
2023-04-22T15:15:18.179Z,99459.78
2023-04-22T15:19:34.491Z,99457.53
2023-04-22T15:23:50.802Z,99457.38
2023-04-22T15:28:07.194Z,99453.50
2023-04-22T15:32:23.469Z,99458.50
2023-04-22T15:36:39.783Z,99452.59
2023-04-22T15:40:56.088Z,99450.38
2023-04-22T15:45:12.587Z,99453.53
2023-04-22T15:49:28.855Z,99460.22
2023-04-22T15:53:48.482Z,99460.09
2023-04-22T15:58:05.214Z,99457.78
2023-04-22T16:02:21.711Z,99450.22
2023-04-22T16:06:38.718Z,99446.81
2023-04-22T16:10:55.050Z,99448.38
2023-04-22T16:15:11.819Z,99446.28
2023-04-22T16:19:28.262Z,99448.25
2023-04-22T16:23:45.688Z,99443.94
2023-04-22T16:28:02.051Z,99435.09
2023-04-22T16:32:18.333Z,99439.94
2023-04-22T16:36:34.703Z,99435.19
2023-04-22T16:40:54.368Z,99434.50
2023-04-22T16:45:10.931Z,99434.09
2023-04-22T16:49:27.230Z,99436.87
2023-04-22T16:53:43.798Z,99430.03
2023-04-22T16:58:02.944Z,99422.56
2023-04-22T17:02:19.977Z,99428.63
2023-04-22T17:06:39.138Z,99430.13
2023-04-22T17:10:56.517Z,99426.47
2023-04-22T17:15:12.971Z,99424.41
2023-04-22T17:19:29.281Z,99423.16
2023-04-22T17:23:45.517Z,99434.34
2023-04-22T17:28:03.797Z,99424.16
2023-04-22T17:32:22.217Z,99435.34
2023-04-22T17:36:40.568Z,99438.50
2023-04-22T17:40:56.848Z,99439.72
2023-04-22T17:45:15.557Z,99451.94
2023-04-22T17:49:32.226Z,99455.47
2023-04-22T17:53:48.455Z,99457.22
2023-04-22T17:58:07.274Z,99451.97
2023-04-22T18:02:27.342Z,99461.72
2023-04-22T18:06:43.645Z,99464.25
2023-04-22T18:11:02.029Z,99471.06
2023-04-22T18:15:21.431Z,99477.53
2023-04-22T18:19:38.157Z,99483.72
2023-04-22T18:23:54.676Z,99495.63
2023-04-22T18:28:11.759Z,99496.56
2023-04-22T18:32:31.543Z,99497.19
2023-04-22T18:36:49.204Z,99501.12
2023-04-22T18:41:06.122Z,99500.81
2023-04-22T18:45:25.316Z,99516.31
2023-04-22T18:49:43.049Z,99517.97
2023-04-22T18:54:01.759Z,99521.09
2023-04-22T19:02:59.744Z,99522.13
2023-04-22T19:07:27.616Z,99518.53
2023-04-22T19:11:44.691Z,99506.37
2023-04-22T19:16:01.412Z,99522.63
2023-04-22T19:20:19.923Z,99527.97
2023-04-22T19:24:36.377Z,99526.34
2023-04-22T19:28:52.614Z,99527.47
2023-04-22T19:33:09.998Z,99525.06
2023-04-22T19:37:28.615Z,99520.19
2023-04-22T19:41:44.858Z,99528.78
2023-04-22T19:46:03.338Z,99522.31
2023-04-22T19:50:21.131Z,99521.00
2023-04-22T19:54:39.765Z,99528.13
2023-04-22T19:58:59.209Z,99512.87
2023-04-22T20:03:18.365Z,99511.06
2023-04-22T20:07:35.668Z,99518.47
2023-04-22T20:11:53.913Z,99518.75
2023-04-22T20:16:12.803Z,99519.41
2023-04-22T20:20:31.312Z,99521.94
2023-04-22T20:24:48.449Z,99523.53
2023-04-22T20:29:08.167Z,99514.91
2023-04-22T20:33:24.949Z,99522.31
2023-04-22T20:37:41.408Z,99518.41
2023-04-22T20:41:58.708Z,99517.25
2023-04-22T20:46:15.076Z,99511.88
2023-04-22T20:50:34.743Z,99512.09
2023-04-22T20:54:57.948Z,99519.91
2023-04-22T20:59:14.369Z,99520.56
2023-04-22T21:03:31.216Z,99518.94
2023-04-22T21:07:50.291Z,99525.00
2023-04-22T21:12:06.921Z,99523.59
2023-04-22T21:16:30.744Z,99530.44
2023-04-22T21:20:48.772Z,99530.03
2023-04-22T21:25:06.281Z,99524.44
2023-04-22T21:29:22.749Z,99544.37
2023-04-22T21:33:39.046Z,99544.16
2023-04-22T21:37:55.727Z,99543.87
2023-04-22T21:42:12.091Z,99546.72
2023-04-22T21:46:28.449Z,99547.31
2023-04-22T21:50:44.717Z,99547.66
2023-04-22T21:55:01.080Z,99551.37
2023-04-22T21:59:17.406Z,99555.19
2023-04-22T22:03:33.949Z,99562.59
2023-04-22T22:07:50.403Z,99560.06
2023-04-22T22:12:07.591Z,99557.53
2023-04-22T22:16:24.910Z,99565.31
2023-04-22T22:20:41.333Z,99556.78
2023-04-22T22:24:57.678Z,99558.09
2023-04-22T22:29:16.910Z,99561.66
2023-04-22T22:33:33.283Z,99559.34
2023-04-22T22:37:49.701Z,99557.78
2023-04-22T22:42:06.138Z,99560.81
2023-04-22T22:46:23.139Z,99563.91
2023-04-22T22:50:40.189Z,99562.62
2023-04-22T22:54:56.481Z,99565.78
2023-04-22T22:59:12.861Z,99557.34
2023-04-22T23:03:29.454Z,99565.44
2023-04-22T23:07:45.870Z,99567.34
2023-04-22T23:12:02.934Z,99572.50
2023-04-22T23:16:19.388Z,99566.00
2023-04-22T23:20:36.628Z,99569.13
2023-04-22T23:24:53.229Z,99572.53
2023-04-22T23:29:09.713Z,99573.56
2023-04-22T23:33:26.592Z,99567.19
2023-04-22T23:37:46.570Z,99564.31
2023-04-22T23:42:02.941Z,99566.13
2023-04-22T23:46:19.348Z,99568.56
2023-04-22T23:50:36.462Z,99566.37
2023-04-22T23:54:53.044Z,99572.00
2023-04-22T23:59:09.616Z,99569.63
